sensor_id;sensor_type;location;lat;lon;timestamp;pressure;altitude;pressure_sealevel;temperature;humidity
29197;BME280;62796;42.654;23.316;2023-07-29T00:03:11;94447.28;;;22.60;40.39
29197;BME280;62796;42.654;23.316;2023-07-29T00:05:37;94440.69;;;22.50;40.62
29197;BME280;62796;42.654;23.316;2023-07-29T00:08:03;94447.50;;;22.39;40.84
29197;BME280;62796;42.654;23.316;2023-07-29T00:10:28;94444.47;;;22.37;41.07
29197;BME280;62796;42.654;23.316;2023-07-29T00:12:54;94440.72;;;22.27;41.35
29197;BME280;62796;42.654;23.316;2023-07-29T00:15:19;94447.69;;;22.19;41.55
29197;BME280;62796;42.654;23.316;2023-07-29T00:17:45;94452.38;;;22.16;41.72
29197;BME280;62796;42.654;23.316;2023-07-29T00:20:10;94448.63;;;22.06;41.96
29197;BME280;62796;42.654;23.316;2023-07-29T00:22:36;94444.09;;;22.11;41.77
29197;BME280;62796;42.654;23.316;2023-07-29T00:25:01;94435.09;;;22.12;41.79
29197;BME280;62796;42.654;23.316;2023-07-29T00:27:27;94445.22;;;22.00;42.19
29197;BME280;62796;42.654;23.316;2023-07-29T00:29:52;94434.34;;;21.89;42.32
29197;BME280;62796;42.654;23.316;2023-07-29T00:32:18;94429.81;;;21.93;42.21
29197;BME280;62796;42.654;23.316;2023-07-29T00:34:43;94442.03;;;21.88;42.32
29197;BME280;62796;42.654;23.316;2023-07-29T00:37:09;94440.69;;;21.89;42.51
29197;BME280;62796;42.654;23.316;2023-07-29T00:39:36;94445.97;;;21.93;42.82
29197;BME280;62796;42.654;23.316;2023-07-29T00:42:02;94437.34;;;21.91;42.83
29197;BME280;62796;42.654;23.316;2023-07-29T00:44:27;94440.09;;;21.83;43.00
29197;BME280;62796;42.654;23.316;2023-07-29T00:46:54;94435.22;;;21.84;42.96
29197;BME280;62796;42.654;23.316;2023-07-29T00:49:20;94424.88;;;21.79;43.05
29197;BME280;62796;42.654;23.316;2023-07-29T00:51:46;94428.44;;;21.72;43.04
29197;BME280;62796;42.654;23.316;2023-07-29T00:54:12;94438.22;;;21.71;43.22
29197;BME280;62796;42.654;23.316;2023-07-29T00:56:38;94432.59;;;21.71;43.20
29197;BME280;62796;42.654;23.316;2023-07-29T00:59:03;94433.91;;;21.70;43.22
29197;BME280;62796;42.654;23.316;2023-07-29T01:01:30;94428.63;;;21.66;43.31
29197;BME280;62796;42.654;23.316;2023-07-29T01:03:55;94422.97;;;21.59;43.43
29197;BME280;62796;42.654;23.316;2023-07-29T01:06:29;94414.72;;;21.61;43.80
29197;BME280;62796;42.654;23.316;2023-07-29T01:14:26;94422.22;;;21.58;43.90
29197;BME280;62796;42.654;23.316;2023-07-29T01:17:00;94424.28;;;21.58;44.04
29197;BME280;62796;42.654;23.316;2023-07-29T01:19:48;94431.44;;;21.59;43.80
29197;BME280;62796;42.654;23.316;2023-07-29T01:22:21;94427.09;;;21.58;43.87
29197;BME280;62796;42.654;23.316;2023-07-29T01:24:46;94419.00;;;21.54;43.84
29197;BME280;62796;42.654;23.316;2023-07-29T01:27:12;94430.09;;;21.60;44.10
29197;BME280;62796;42.654;23.316;2023-07-29T01:29:37;94418.06;;;21.51;44.00
29197;BME280;62796;42.654;23.316;2023-07-29T01:32:14;94427.09;;;21.58;44.14
29197;BME280;62796;42.654;23.316;2023-07-29T01:34:48;94436.50;;;21.52;44.48
29197;BME280;62796;42.654;23.316;2023-07-29T01:37:22;94443.25;;;21.49;44.60
29197;BME280;62796;42.654;23.316;2023-07-29T01:39:54;94430.66;;;21.43;44.72
29197;BME280;62796;42.654;23.316;2023-07-29T01:42:22;94430.06;;;21.44;44.80
29197;BME280;62796;42.654;23.316;2023-07-29T01:44:47;94428.38;;;21.41;44.83
29197;BME280;62796;42.654;23.316;2023-07-29T01:47:13;94430.81;;;21.37;45.07
29197;BME280;62796;42.654;23.316;2023-07-29T01:49:38;94431.59;;;21.38;45.14
29197;BME280;62796;42.654;23.316;2023-07-29T01:52:04;94434.41;;;21.38;45.02
29197;BME280;62796;42.654;23.316;2023-07-29T01:54:29;94424.03;;;21.33;44.62
29197;BME280;62796;42.654;23.316;2023-07-29T01:56:54;94436.47;;;21.37;44.76
29197;BME280;62796;42.654;23.316;2023-07-29T01:59:20;94430.81;;;21.37;44.88
29197;BME280;62796;42.654;23.316;2023-07-29T02:01:45;94430.06;;;21.29;45.01
29197;BME280;62796;42.654;23.316;2023-07-29T02:04:11;94427.38;;;21.24;45.04
29197;BME280;62796;42.654;23.316;2023-07-29T02:06:37;94431.91;;;21.27;45.23
29197;BME280;62796;42.654;23.316;2023-07-29T02:09:02;94437.94;;;21.31;45.17
29197;BME280;62796;42.654;23.316;2023-07-29T02:11:29;94427.03;;;21.27;45.18
29197;BME280;62796;42.654;23.316;2023-07-29T02:13:55;94428.53;;;21.28;45.18
29197;BME280;62796;42.654;23.316;2023-07-29T02:16:21;94431.91;;;21.27;45.23
29197;BME280;62796;42.654;23.316;2023-07-29T02:18:48;94438.28;;;21.27;45.37
29197;BME280;62796;42.654;23.316;2023-07-29T02:21:14;94439.75;;;21.21;45.38
29197;BME280;62796;42.654;23.316;2023-07-29T02:23:40;94444.28;;;21.24;45.44
29197;BME280;62796;42.654;23.316;2023-07-29T02:26:05;94441.63;;;21.18;45.73
29197;BME280;62796;42.654;23.316;2023-07-29T02:28:31;94434.53;;;21.17;45.97
29197;BME280;62796;42.654;23.316;2023-07-29T02:31:13;94445.78;;;21.17;46.10
29197;BME280;62796;42.654;23.316;2023-07-29T02:33:39;94446.69;;;21.12;45.88
29197;BME280;62796;42.654;23.316;2023-07-29T02:36:04;94447.19;;;21.03;45.64
29197;BME280;62796;42.654;23.316;2023-07-29T02:38:30;94441.19;;;20.99;45.56
29197;BME280;62796;42.654;23.316;2023-07-29T02:40:55;94437.56;;;20.91;46.00
29197;BME280;62796;42.654;23.316;2023-07-29T02:43:21;94435.47;;;20.84;46.04
29197;BME280;62796;42.654;23.316;2023-07-29T02:45:46;94439.59;;;20.83;46.04
29197;BME280;62796;42.654;23.316;2023-07-29T02:48:11;94437.69;;;20.78;45.99
29197;BME280;62796;42.654;23.316;2023-07-29T02:50:37;94436.19;;;20.77;45.95
29197;BME280;62796;42.654;23.316;2023-07-29T02:53:02;94443.31;;;20.78;46.03
29197;BME280;62796;42.654;23.316;2023-07-29T02:55:28;94434.66;;;20.76;46.13
29197;BME280;62796;42.654;23.316;2023-07-29T02:57:53;94438.81;;;20.75;46.55
29197;BME280;62796;42.654;23.316;2023-07-29T03:00:19;94440.69;;;20.80;46.75
29197;BME280;62796;42.654;23.316;2023-07-29T03:02:44;94444.81;;;20.79;46.62
29197;BME280;62796;42.654;23.316;2023-07-29T03:05:10;94432.97;;;20.73;46.60
29197;BME280;62796;42.654;23.316;2023-07-29T03:07:35;94453.47;;;20.81;46.79
29197;BME280;62796;42.654;23.316;2023-07-29T03:10:01;94459.09;;;20.81;46.73
29197;BME280;62796;42.654;23.316;2023-07-29T03:12:26;94458.69;;;20.77;46.69
29197;BME280;62796;42.654;23.316;2023-07-29T03:14:52;94463.13;;;20.65;46.74
29197;BME280;62796;42.654;23.316;2023-07-29T03:17:17;94462.75;;;20.61;46.29
29197;BME280;62796;42.654;23.316;2023-07-29T03:19:43;94461.03;;;20.58;46.54
29197;BME280;62796;42.654;23.316;2023-07-29T03:22:08;94464.19;;;20.54;46.47
29197;BME280;62796;42.654;23.316;2023-07-29T03:24:33;94460.63;;;20.54;46.47
29197;BME280;62796;42.654;23.316;2023-07-29T03:26:59;94467.53;;;20.53;46.59
29197;BME280;62796;42.654;23.316;2023-07-29T03:29:24;94457.97;;;20.48;47.10
29197;BME280;62796;42.654;23.316;2023-07-29T03:31:50;94464.88;;;20.47;46.73
29197;BME280;62796;42.654;23.316;2023-07-29T03:34:15;94468.28;;;20.46;46.65
29197;BME280;62796;42.654;23.316;2023-07-29T03:36:40;94461.31;;;20.47;46.68
29197;BME280;62796;42.654;23.316;2023-07-29T03:39:06;94460.16;;;20.42;46.90
29197;BME280;62796;42.654;23.316;2023-07-29T03:41:33;94467.84;;;20.41;47.37
29197;BME280;62796;42.654;23.316;2023-07-29T03:43:58;94463.13;;;20.36;47.53
29197;BME280;62796;42.654;23.316;2023-07-29T03:46:24;94453.00;;;20.33;47.53
29197;BME280;62796;42.654;23.316;2023-07-29T03:48:50;94468.00;;;20.36;47.69
29197;BME280;62796;42.654;23.316;2023-07-29T03:51:15;94463.31;;;20.38;47.74
29197;BME280;62796;42.654;23.316;2023-07-29T03:53:41;94459.41;;;20.41;47.71
29197;BME280;62796;42.654;23.316;2023-07-29T03:56:07;94465.78;;;20.42;47.86
29197;BME280;62796;42.654;23.316;2023-07-29T03:58:32;94464.13;;;20.47;47.75
29197;BME280;62796;42.654;23.316;2023-07-29T04:00:58;94456.09;;;20.51;47.50
29197;BME280;62796;42.654;23.316;2023-07-29T04:03:24;94463.03;;;20.50;47.68
29197;BME280;62796;42.654;23.316;2023-07-29T04:05:49;94460.78;;;20.48;47.74
29197;BME280;62796;42.654;23.316;2023-07-29T04:08:15;94469.00;;;20.46;47.98
29197;BME280;62796;42.654;23.316;2023-07-29T04:10:40;94470.31;;;20.45;48.21
29197;BME280;62796;42.654;23.316;2023-07-29T04:13:05;94470.66;;;20.41;48.03
29197;BME280;62796;42.654;23.316;2023-07-29T04:15:31;94473.06;;;20.37;48.19
29197;BME280;62796;42.654;23.316;2023-07-29T04:17:57;94470.84;;;20.43;48.28
29197;BME280;62796;42.654;23.316;2023-07-29T04:20:22;94471.19;;;20.40;48.29
29197;BME280;62796;42.654;23.316;2023-07-29T04:22:48;94463.03;;;20.50;47.88
29197;BME280;62796;42.654;23.316;2023-07-29T04:25:13;94466.84;;;20.60;47.70
29197;BME280;62796;42.654;23.316;2023-07-29T04:27:39;94463.13;;;20.65;47.38
29197;BME280;62796;42.654;23.316;2023-07-29T04:30:05;94473.88;;;20.74;47.30
29197;BME280;62796;42.654;23.316;2023-07-29T04:32:31;94466.94;;;20.75;47.17
29197;BME280;62796;42.654;23.316;2023-07-29T04:34:56;94473.78;;;20.87;46.58
29197;BME280;62796;42.654;23.316;2023-07-29T04:37:21;94470.44;;;20.96;46.08
29197;BME280;62796;42.654;23.316;2023-07-29T04:39:47;94470.47;;;21.04;45.42
29197;BME280;62796;42.654;23.316;2023-07-29T04:42:12;94481.81;;;21.11;44.87
29197;BME280;62796;42.654;23.316;2023-07-29T04:44:38;94482.41;;;21.17;44.72
29197;BME280;62796;42.654;23.316;2023-07-29T04:47:03;94477.53;;;21.25;44.49
29197;BME280;62796;42.654;23.316;2023-07-29T04:49:29;94472.50;;;21.39;44.56
29197;BME280;62796;42.654;23.316;2023-07-29T04:51:54;94478.38;;;21.48;44.82
29197;BME280;62796;42.654;23.316;2023-07-29T04:54:19;94482.72;;;21.57;44.62
29197;BME280;62796;42.654;23.316;2023-07-29T04:56:46;94483.88;;;21.69;44.32
29197;BME280;62796;42.654;23.316;2023-07-29T04:59:12;94482.22;;;21.81;44.03
29197;BME280;62796;42.654;23.316;2023-07-29T05:01:38;94482.06;;;22.02;43.47
29197;BME280;62796;42.654;23.316;2023-07-29T05:04:04;94489.41;;;22.05;43.46
29197;BME280;62796;42.654;23.316;2023-07-29T05:06:29;94486.97;;;22.09;43.62
29197;BME280;62796;42.654;23.316;2023-07-29T05:08:57;94492.81;;;22.26;43.20
29197;BME280;62796;42.654;23.316;2023-07-29T05:11:22;94500.72;;;22.35;42.76
29197;BME280;62796;42.654;23.316;2023-07-29T05:13:50;94488.69;;;22.35;42.70
29197;BME280;62796;42.654;23.316;2023-07-29T05:16:16;94490.56;;;22.47;42.21
29197;BME280;62796;42.654;23.316;2023-07-29T05:18:41;94497.50;;;22.61;41.91
29197;BME280;62796;42.654;23.316;2023-07-29T05:21:06;94504.31;;;22.74;41.44
29197;BME280;62796;42.654;23.316;2023-07-29T05:23:33;94501.31;;;22.72;41.53
29197;BME280;62796;42.654;23.316;2023-07-29T05:25:59;94498.28;;;22.77;41.63
29197;BME280;62796;42.654;23.316;2023-07-29T05:28:24;94497.16;;;22.88;41.49
29197;BME280;62796;42.654;23.316;2023-07-29T05:30:49;94500.88;;;22.98;41.47
29197;BME280;62796;42.654;23.316;2023-07-29T05:33:15;94499.91;;;23.03;40.83
29197;BME280;62796;42.654;23.316;2023-07-29T05:35:40;94500.91;;;22.90;40.81
29197;BME280;62796;42.654;23.316;2023-07-29T05:38:06;94506.50;;;23.05;40.86
29197;BME280;62796;42.654;23.316;2023-07-29T05:40:33;94499.69;;;23.16;40.75
29197;BME280;62796;42.654;23.316;2023-07-29T05:42:59;94511.34;;;23.28;40.04
29197;BME280;62796;42.654;23.316;2023-07-29T05:45:24;94512.81;;;23.36;40.05
29197;BME280;62796;42.654;23.316;2023-07-29T05:47:50;94518.09;;;23.47;39.32
29197;BME280;62796;42.654;23.316;2023-07-29T05:50:15;94518.41;;;23.59;39.60
29197;BME280;62796;42.654;23.316;2023-07-29T05:52:41;94521.38;;;23.68;39.43
29197;BME280;62796;42.654;23.316;2023-07-29T05:55:07;94508.50;;;23.75;39.56
29197;BME280;62796;42.654;23.316;2023-07-29T05:57:32;94509.97;;;23.84;39.39
29197;BME280;62796;42.654;23.316;2023-07-29T05:59:58;94514.22;;;24.00;38.93
29197;BME280;62796;42.654;23.316;2023-07-29T06:02:23;94513.25;;;24.05;38.54
29197;BME280;62796;42.654;23.316;2023-07-29T06:04:49;94512.50;;;24.12;38.31
29197;BME280;62796;42.654;23.316;2023-07-29T06:07:14;94518.97;;;24.30;37.84
29197;BME280;62796;42.654;23.316;2023-07-29T06:09:40;94514.00;;;24.38;37.76
29197;BME280;62796;42.654;23.316;2023-07-29T06:12:05;94504.31;;;24.48;37.60
29197;BME280;62796;42.654;23.316;2023-07-29T06:14:31;94504.00;;;24.61;37.05
29197;BME280;62796;42.654;23.316;2023-07-29T06:16:56;94511.13;;;24.70;36.85
29197;BME280;62796;42.654;23.316;2023-07-29T06:19:22;94504.44;;;24.75;37.00
29197;BME280;62796;42.654;23.316;2023-07-29T06:21:48;94496.50;;;24.81;36.80
29197;BME280;62796;42.654;23.316;2023-07-29T06:24:13;94499.75;;;24.95;36.54
29197;BME280;62796;42.654;23.316;2023-07-29T06:26:39;94498.09;;;25.09;36.29
29197;BME280;62796;42.654;23.316;2023-07-29T06:29:04;94500.25;;;25.18;35.55
29197;BME280;62796;42.654;23.316;2023-07-29T06:31:30;94493.59;;;25.23;35.47
29197;BME280;62796;42.654;23.316;2023-07-29T06:33:57;94494.00;;;25.37;35.33
29197;BME280;62796;42.654;23.316;2023-07-29T06:36:23;94492.06;;;25.39;35.92
29197;BME280;62796;42.654;23.316;2023-07-29T06:38:48;94483.16;;;25.60;35.17
29197;BME280;62796;42.654;23.316;2023-07-29T06:41:13;94498.38;;;25.81;35.02
29197;BME280;62796;42.654;23.316;2023-07-29T06:43:39;94485.88;;;25.84;35.43
29197;BME280;62796;42.654;23.316;2023-07-29T06:46:04;94486.72;;;25.77;35.65
29197;BME280;62796;42.654;23.316;2023-07-29T06:48:30;94481.78;;;25.78;35.28
29197;BME280;62796;42.654;23.316;2023-07-29T06:50:55;94481.22;;;25.79;35.30
29197;BME280;62796;42.654;23.316;2023-07-29T06:53:25;94485.91;;;25.67;35.24
29197;BME280;62796;42.654;23.316;2023-07-29T06:55:50;94487.91;;;25.74;35.12
29197;BME280;62796;42.654;23.316;2023-07-29T06:58:16;94489.09;;;25.71;35.36
29197;BME280;62796;42.654;23.316;2023-07-29T07:00:41;94495.28;;;25.87;34.99
29197;BME280;62796;42.654;23.316;2023-07-29T07:03:07;94488.97;;;26.06;35.01
29197;BME280;62796;42.654;23.316;2023-07-29T07:05:32;94495.09;;;26.29;34.58
29197;BME280;62796;42.654;23.316;2023-07-29T07:07:58;94495.28;;;26.40;34.29
29197;BME280;62796;42.654;23.316;2023-07-29T07:10:23;94488.47;;;26.53;34.30
29197;BME280;62796;42.654;23.316;2023-07-29T07:12:48;94494.69;;;26.78;34.02
29197;BME280;62796;42.654;23.316;2023-07-29T07:15:14;94479.34;;;26.91;33.26
29197;BME280;62796;42.654;23.316;2023-07-29T07:17:39;94475.31;;;26.94;33.20
29197;BME280;62796;42.654;23.316;2023-07-29T07:20:05;94480.28;;;26.67;33.41
29197;BME280;62796;42.654;23.316;2023-07-29T07:22:31;94478.25;;;26.86;32.89
29197;BME280;62796;42.654;23.316;2023-07-29T07:24:56;94485.34;;;27.14;31.95
29197;BME280;62796;42.654;23.316;2023-07-29T07:27:21;94478.91;;;27.33;31.84
29197;BME280;62796;42.654;23.316;2023-07-29T07:29:47;94474.00;;;27.53;31.52
29197;BME280;62796;42.654;23.316;2023-07-29T07:32:12;94478.94;;;27.71;31.12
29197;BME280;62796;42.654;23.316;2023-07-29T07:34:37;94479.97;;;27.66;30.86
29197;BME280;62796;42.654;23.316;2023-07-29T07:37:03;94476.22;;;27.73;30.21
29197;BME280;62796;42.654;23.316;2023-07-29T07:39:29;94470.25;;;27.50;30.83
29197;BME280;62796;42.654;23.316;2023-07-29T07:41:55;94475.78;;;27.58;31.03
29197;BME280;62796;42.654;23.316;2023-07-29T07:44:20;94473.56;;;27.56;31.23
29197;BME280;62796;42.654;23.316;2023-07-29T07:46:46;94478.88;;;27.81;31.50
29197;BME280;62796;42.654;23.316;2023-07-29T07:49:11;94475.25;;;28.19;30.67
29197;BME280;62796;42.654;23.316;2023-07-29T07:51:38;94473.16;;;28.50;30.39
29197;BME280;62796;42.654;23.316;2023-07-29T07:54:03;94472.03;;;28.74;30.87
29197;BME280;62796;42.654;23.316;2023-07-29T07:56:29;94474.91;;;28.95;30.56
29197;BME280;62796;42.654;23.316;2023-07-29T07:58:54;94481.16;;;29.03;29.98
29197;BME280;62796;42.654;23.316;2023-07-29T08:01:19;94477.00;;;29.26;29.33
29197;BME280;62796;42.654;23.316;2023-07-29T08:03:45;94478.19;;;29.44;29.42
29197;BME280;62796;42.654;23.316;2023-07-29T08:06:10;94472.88;;;29.71;29.11
29197;BME280;62796;42.654;23.316;2023-07-29T08:08:36;94475.94;;;29.96;28.40
29197;BME280;62796;42.654;23.316;2023-07-29T08:11:01;94471.00;;;30.08;28.30
29197;BME280;62796;42.654;23.316;2023-07-29T08:13:26;94477.84;;;30.15;27.92
29197;BME280;62796;42.654;23.316;2023-07-29T08:15:53;94475.94;;;29.96;28.13
29197;BME280;62796;42.654;23.316;2023-07-29T08:18:19;94476.47;;;30.04;28.11
29197;BME280;62796;42.654;23.316;2023-07-29T08:20:58;94482.72;;;30.36;27.39
29197;BME280;62796;42.654;23.316;2023-07-29T08:23:25;94490.84;;;30.51;27.54
29197;BME280;62796;42.654;23.316;2023-07-29T08:25:56;94481.31;;;30.69;26.92
29197;BME280;62796;42.654;23.316;2023-07-29T08:28:30;94470.34;;;30.54;27.40
29197;BME280;62796;42.654;23.316;2023-07-29T08:30:55;94479.81;;;30.68;27.02
29197;BME280;62796;42.654;23.316;2023-07-29T08:33:21;94477.81;;;30.71;26.94
29197;BME280;62796;42.654;23.316;2023-07-29T08:35:46;94475.94;;;30.87;26.46
29197;BME280;62796;42.654;23.316;2023-07-29T08:38:12;94475.66;;;31.30;25.81
29197;BME280;62796;42.654;23.316;2023-07-29T08:40:42;94477.00;;;31.40;25.12
29197;BME280;62796;42.654;23.316;2023-07-29T08:43:12;94475.72;;;31.55;24.58
29197;BME280;62796;42.654;23.316;2023-07-29T08:45:39;94459.44;;;31.83;24.67
29197;BME280;62796;42.654;23.316;2023-07-29T08:48:08;94459.09;;;32.02;23.71
29197;BME280;62796;42.654;23.316;2023-07-29T08:50:36;94458.00;;;32.20;23.57
29197;BME280;62796;42.654;23.316;2023-07-29T08:53:04;94455.13;;;32.20;23.60
29197;BME280;62796;42.654;23.316;2023-07-29T08:55:31;94454.66;;;32.38;22.77
29197;BME280;62796;42.654;23.316;2023-07-29T08:57:57;94451.66;;;32.61;22.79
29197;BME280;62796;42.654;23.316;2023-07-29T09:00:23;94465.16;;;32.72;21.75
29197;BME280;62796;42.654;23.316;2023-07-29T09:02:49;94455.25;;;32.88;21.24
29197;BME280;62796;42.654;23.316;2023-07-29T09:05:16;94468.22;;;32.90;21.47
29197;BME280;62796;42.654;23.316;2023-07-29T09:07:42;94456.22;;;32.93;20.78
29197;BME280;62796;42.654;23.316;2023-07-29T09:10:09;94449.13;;;32.94;20.66
29197;BME280;62796;42.654;23.316;2023-07-29T09:12:38;94448.25;;;32.92;21.39
29197;BME280;62796;42.654;23.316;2023-07-29T09:15:04;94440.09;;;33.13;20.97
29197;BME280;62796;42.654;23.316;2023-07-29T09:17:33;94438.47;;;33.37;20.71
29197;BME280;62796;42.654;23.316;2023-07-29T09:19:59;94434.31;;;33.40;21.23
29197;BME280;62796;42.654;23.316;2023-07-29T09:22:26;94438.44;;;33.51;21.01
29197;BME280;62796;42.654;23.316;2023-07-29T09:24:53;94431.09;;;33.62;20.64
29197;BME280;62796;42.654;23.316;2023-07-29T09:27:28;94432.59;;;33.63;20.39
29197;BME280;62796;42.654;23.316;2023-07-29T09:29:57;94439.53;;;33.87;20.37
29197;BME280;62796;42.654;23.316;2023-07-29T09:32:24;94431.84;;;33.91;19.97
29197;BME280;62796;42.654;23.316;2023-07-29T09:34:50;94429.41;;;34.15;19.60
29197;BME280;62796;42.654;23.316;2023-07-29T09:39:46;94423.94;;;34.21;19.14
29197;BME280;62796;42.654;23.316;2023-07-29T09:42:18;94421.44;;;34.29;19.20
29197;BME280;62796;42.654;23.316;2023-07-29T09:44:44;94420.63;;;34.42;19.40
29197;BME280;62796;42.654;23.316;2023-07-29T09:47:09;94423.44;;;34.40;18.25
29197;BME280;62796;42.654;23.316;2023-07-29T09:49:43;94421.38;;;34.43;19.27
29197;BME280;62796;42.654;23.316;2023-07-29T09:52:10;94411.66;;;34.66;18.44
29197;BME280;62796;42.654;23.316;2023-07-29T09:54:36;94412.41;;;34.66;18.12
29197;BME280;62796;42.654;23.316;2023-07-29T09:57:02;94409.13;;;34.74;18.61
29197;BME280;62796;42.654;23.316;2023-07-29T09:59:28;94409.16;;;35.07;17.59
29197;BME280;62796;42.654;23.316;2023-07-29T10:01:54;94412.38;;;34.97;17.77
29197;BME280;62796;42.654;23.316;2023-07-29T10:04:19;94408.06;;;34.98;17.48
29197;BME280;62796;42.654;23.316;2023-07-29T10:06:46;94397.13;;;35.11;17.51
29197;BME280;62796;42.654;23.316;2023-07-29T10:09:11;94405.38;;;35.18;17.24
29197;BME280;62796;42.654;23.316;2023-07-29T10:11:38;94404.72;;;35.20;17.52
29197;BME280;62796;42.654;23.316;2023-07-29T10:14:04;94402.03;;;35.75;17.15
29197;BME280;62796;42.654;23.316;2023-07-29T10:16:30;94400.47;;;35.72;16.94
29197;BME280;62796;42.654;23.316;2023-07-29T10:18:56;94401.28;;;35.92;16.52
29197;BME280;62796;42.654;23.316;2023-07-29T10:21:22;94393.44;;;35.94;15.98
29197;BME280;62796;42.654;23.316;2023-07-29T10:23:49;94387.63;;;36.10;16.16
29197;BME280;62796;42.654;23.316;2023-07-29T10:26:19;94375.28;;;36.08;15.80
29197;BME280;62796;42.654;23.316;2023-07-29T10:28:47;94379.69;;;36.28;16.36
29197;BME280;62796;42.654;23.316;2023-07-29T10:31:15;94371.25;;;36.34;15.86
29197;BME280;62796;42.654;23.316;2023-07-29T10:33:41;94373.16;;;36.28;15.73
29197;BME280;62796;42.654;23.316;2023-07-29T10:36:08;94369.03;;;36.33;15.22
29197;BME280;62796;42.654;23.316;2023-07-29T10:38:34;94362.44;;;36.30;15.28
29197;BME280;62796;42.654;23.316;2023-07-29T10:40:59;94354.75;;;36.54;15.42
29197;BME280;62796;42.654;23.316;2023-07-29T10:43:27;94361.19;;;36.73;14.69
29197;BME280;62796;42.654;23.316;2023-07-29T10:45:56;94356.50;;;36.64;14.70
29197;BME280;62796;42.654;23.316;2023-07-29T10:51:28;94356.69;;;36.30;14.76
29197;BME280;62796;42.654;23.316;2023-07-29T10:54:13;94337.44;;;35.99;15.03
29197;BME280;62796;42.654;23.316;2023-07-29T10:56:46;94338.75;;;35.96;15.74
29197;BME280;62796;42.654;23.316;2023-07-29T11:01:40;94334.56;;;36.17;15.44
29197;BME280;62796;42.654;23.316;2023-07-29T11:09:53;94333.72;;;36.72;14.99
29197;BME280;62796;42.654;23.316;2023-07-29T11:20:05;94320.94;;;36.57;14.99
29197;BME280;62796;42.654;23.316;2023-07-29T11:22:32;94326.19;;;36.82;14.50
29197;BME280;62796;42.654;23.316;2023-07-29T11:24:58;94320.50;;;36.65;14.94
29197;BME280;62796;42.654;23.316;2023-07-29T11:27:24;94323.06;;;36.76;14.57
29197;BME280;62796;42.654;23.316;2023-07-29T11:29:49;94324.09;;;36.85;14.49
29197;BME280;62796;42.654;23.316;2023-07-29T11:32:15;94321.28;;;36.87;14.07
29197;BME280;62796;42.654;23.316;2023-07-29T11:34:42;94315.50;;;36.87;14.24
29197;BME280;62796;42.654;23.316;2023-07-29T11:37:10;94316.69;;;36.99;14.34
29197;BME280;62796;42.654;23.316;2023-07-29T11:39:40;94305.63;;;37.13;14.19
29197;BME280;62796;42.654;23.316;2023-07-29T11:42:06;94309.81;;;37.30;13.86
29197;BME280;62796;42.654;23.316;2023-07-29T11:44:32;94305.66;;;37.35;13.81
29197;BME280;62796;42.654;23.316;2023-07-29T11:46:57;94309.16;;;37.53;14.22
29197;BME280;62796;42.654;23.316;2023-07-29T11:49:23;94304.94;;;37.56;14.13
29197;BME280;62796;42.654;23.316;2023-07-29T11:51:48;94308.94;;;37.26;14.52
29197;BME280;62796;42.654;23.316;2023-07-29T11:54:15;94294.66;;;37.51;14.48
29197;BME280;62796;42.654;23.316;2023-07-29T11:56:40;94287.78;;;37.62;14.05
29197;BME280;62796;42.654;23.316;2023-07-29T11:59:06;94294.56;;;37.71;13.82
29197;BME280;62796;42.654;23.316;2023-07-29T12:01:32;94288.25;;;37.55;13.30
29197;BME280;62796;42.654;23.316;2023-07-29T12:03:58;94298.00;;;37.65;13.55
29197;BME280;62796;42.654;23.316;2023-07-29T12:06:24;94289.53;;;37.72;13.56
29197;BME280;62796;42.654;23.316;2023-07-29T12:08:51;94287.47;;;37.76;13.43
29197;BME280;62796;42.654;23.316;2023-07-29T12:11:16;94281.41;;;37.23;13.20
29197;BME280;62796;42.654;23.316;2023-07-29T12:13:43;94285.16;;;37.49;13.25
29197;BME280;62796;42.654;23.316;2023-07-29T12:16:08;94275.84;;;37.50;14.07
29197;BME280;62796;42.654;23.316;2023-07-29T12:18:33;94270.81;;;37.75;13.24
29197;BME280;62796;42.654;23.316;2023-07-29T12:20:59;94270.88;;;37.77;12.94
29197;BME280;62796;42.654;23.316;2023-07-29T12:23:26;94271.47;;;37.49;13.60
29197;BME280;62796;42.654;23.316;2023-07-29T12:25:58;94271.53;;;37.51;13.24
29197;BME280;62796;42.654;23.316;2023-07-29T12:28:24;94273.38;;;37.64;13.38
29197;BME280;62796;42.654;23.316;2023-07-29T12:30:56;94267.63;;;37.64;13.12
29197;BME280;62796;42.654;23.316;2023-07-29T12:33:37;94263.31;;;37.65;13.46
29197;BME280;62796;42.654;23.316;2023-07-29T12:36:04;94257.19;;;37.77;12.92
29197;BME280;62796;42.654;23.316;2023-07-29T12:38:30;94249.34;;;37.82;13.37
29197;BME280;62796;42.654;23.316;2023-07-29T12:40:56;94263.69;;;37.78;13.52
29197;BME280;62796;42.654;23.316;2023-07-29T12:43:22;94253.84;;;37.87;12.95
29197;BME280;62796;42.654;23.316;2023-07-29T12:45:51;94258.16;;;37.86;12.88
29197;BME280;62796;42.654;23.316;2023-07-29T12:48:16;94260.25;;;37.59;12.83
29197;BME280;62796;42.654;23.316;2023-07-29T12:50:42;94263.78;;;37.58;12.75
29197;BME280;62796;42.654;23.316;2023-07-29T12:53:08;94253.78;;;37.39;13.18
29197;BME280;62796;42.654;23.316;2023-07-29T12:55:37;94253.78;;;37.39;13.43
29197;BME280;62796;42.654;23.316;2023-07-29T12:58:03;94256.91;;;37.45;13.05
29197;BME280;62796;42.654;23.316;2023-07-29T13:00:28;94259.09;;;37.68;12.92
29197;BME280;62796;42.654;23.316;2023-07-29T13:02:54;94247.28;;;37.60;12.32
29197;BME280;62796;42.654;23.316;2023-07-29T13:05:20;94260.44;;;37.65;12.36
29197;BME280;62796;42.654;23.316;2023-07-29T13:07:45;94257.41;;;37.61;12.01
29197;BME280;62796;42.654;23.316;2023-07-29T13:10:11;94253.56;;;37.55;12.60
29197;BME280;62796;42.654;23.316;2023-07-29T13:12:38;94249.38;;;37.36;12.29
29197;BME280;62796;42.654;23.316;2023-07-29T13:15:03;94248.38;;;37.28;12.64